sensor_id;sensor_type;location;lat;lon;timestamp;temperature;humidity
9437;DHT22;4757;59.334;18.034;2023-10-19T00:00:37;2.80;99.90
9437;DHT22;4757;59.334;18.034;2023-10-19T00:03:07;2.80;99.90
9437;DHT22;4757;59.334;18.034;2023-10-19T00:05:36;2.70;99.90
9437;DHT22;4757;59.334;18.034;2023-10-19T00:08:05;2.80;99.90
9437;DHT22;4757;59.334;18.034;2023-10-19T00:10:46;2.90;99.90
9437;DHT22;4757;59.334;18.034;2023-10-19T00:13:37;2.70;99.90
9437;DHT22;4757;59.334;18.034;2023-10-19T00:16:09;2.80;99.90
9437;DHT22;4757;59.334;18.034;2023-10-19T00:18:59;2.70;99.90
9437;DHT22;4757;59.334;18.034;2023-10-19T00:21:27;2.70;99.90
9437;DHT22;4757;59.334;18.034;2023-10-19T00:23:57;2.70;99.90
9437;DHT22;4757;59.334;18.034;2023-10-19T00:26:26;2.70;99.90
9437;DHT22;4757;59.334;18.034;2023-10-19T00:28:57;2.60;99.90
9437;DHT22;4757;59.334;18.034;2023-10-19T00:31:30;2.80;99.90
9437;DHT22;4757;59.334;18.034;2023-10-19T00:34:01;2.90;99.90
9437;DHT22;4757;59.334;18.034;2023-10-19T00:36:30;2.90;99.90
9437;DHT22;4757;59.334;18.034;2023-10-19T00:38:58;2.90;99.90
9437;DHT22;4757;59.334;18.034;2023-10-19T00:41:30;2.80;99.90
9437;DHT22;4757;59.334;18.034;2023-10-19T00:43:59;2.80;99.90
9437;DHT22;4757;59.334;18.034;2023-10-19T00:46:37;2.90;99.90
9437;DHT22;4757;59.334;18.034;2023-10-19T00:49:16;3.00;99.90
9437;DHT22;4757;59.334;18.034;2023-10-19T00:51:45;2.90;99.90
9437;DHT22;4757;59.334;18.034;2023-10-19T00:54:28;2.90;99.90
9437;DHT22;4757;59.334;18.034;2023-10-19T00:57:19;2.90;99.90
9437;DHT22;4757;59.334;18.034;2023-10-19T01:00:01;2.90;99.90
9437;DHT22;4757;59.334;18.034;2023-10-19T01:02:41;2.90;99.90
9437;DHT22;4757;59.334;18.034;2023-10-19T01:05:12;2.90;99.90
9437;DHT22;4757;59.334;18.034;2023-10-19T01:07:40;2.80;99.90
9437;DHT22;4757;59.334;18.034;2023-10-19T01:10:08;2.50;99.90
9437;DHT22;4757;59.334;18.034;2023-10-19T01:12:35;2.60;99.90
9437;DHT22;4757;59.334;18.034;2023-10-19T01:15:08;2.70;99.90
9437;DHT22;4757;59.334;18.034;2023-10-19T01:17:46;2.60;99.90
9437;DHT22;4757;59.334;18.034;2023-10-19T01:20:26;2.60;99.90
9437;DHT22;4757;59.334;18.034;2023-10-19T01:23:07;2.60;99.90
9437;DHT22;4757;59.334;18.034;2023-10-19T01:25:50;2.60;99.90
9437;DHT22;4757;59.334;18.034;2023-10-19T01:28:22;2.60;99.90
9437;DHT22;4757;59.334;18.034;2023-10-19T01:30:52;2.70;99.90
9437;DHT22;4757;59.334;18.034;2023-10-19T01:33:20;2.70;99.90
9437;DHT22;4757;59.334;18.034;2023-10-19T01:35:48;2.70;99.90
9437;DHT22;4757;59.334;18.034;2023-10-19T01:38:34;2.70;99.90
9437;DHT22;4757;59.334;18.034;2023-10-19T01:41:03;2.70;99.90
9437;DHT22;4757;59.334;18.034;2023-10-19T01:43:34;2.70;99.90
9437;DHT22;4757;59.334;18.034;2023-10-19T01:46:03;2.70;99.90
9437;DHT22;4757;59.334;18.034;2023-10-19T01:48:43;2.70;99.90
9437;DHT22;4757;59.334;18.034;2023-10-19T01:51:11;2.60;99.90
9437;DHT22;4757;59.334;18.034;2023-10-19T01:53:41;2.60;99.90
9437;DHT22;4757;59.334;18.034;2023-10-19T01:56:12;2.50;99.90
9437;DHT22;4757;59.334;18.034;2023-10-19T01:58:43;2.60;99.90
9437;DHT22;4757;59.334;18.034;2023-10-19T02:01:11;2.70;99.90
9437;DHT22;4757;59.334;18.034;2023-10-19T02:03:41;2.60;99.90
9437;DHT22;4757;59.334;18.034;2023-10-19T02:06:10;2.50;99.90
9437;DHT22;4757;59.334;18.034;2023-10-19T02:08:56;2.60;99.90
9437;DHT22;4757;59.334;18.034;2023-10-19T02:11:24;2.60;99.90
9437;DHT22;4757;59.334;18.034;2023-10-19T02:13:54;2.70;99.90
9437;DHT22;4757;59.334;18.034;2023-10-19T02:16:22;2.50;99.90
9437;DHT22;4757;59.334;18.034;2023-10-19T02:18:50;2.60;99.90
9437;DHT22;4757;59.334;18.034;2023-10-19T02:21:18;2.50;99.90
9437;DHT22;4757;59.334;18.034;2023-10-19T02:23:49;2.40;99.90
9437;DHT22;4757;59.334;18.034;2023-10-19T02:26:20;2.50;99.90
9437;DHT22;4757;59.334;18.034;2023-10-19T02:28:50;2.50;99.90
9437;DHT22;4757;59.334;18.034;2023-10-19T02:31:20;2.50;99.90
9437;DHT22;4757;59.334;18.034;2023-10-19T02:33:53;2.40;99.90
9437;DHT22;4757;59.334;18.034;2023-10-19T02:36:31;2.40;99.90
9437;DHT22;4757;59.334;18.034;2023-10-19T02:39:01;2.40;99.90
9437;DHT22;4757;59.334;18.034;2023-10-19T02:41:39;2.40;99.90
9437;DHT22;4757;59.334;18.034;2023-10-19T02:44:09;2.20;99.90
9437;DHT22;4757;59.334;18.034;2023-10-19T02:46:47;2.30;99.90
9437;DHT22;4757;59.334;18.034;2023-10-19T02:49:18;2.20;99.90
9437;DHT22;4757;59.334;18.034;2023-10-19T02:51:48;2.20;99.90
9437;DHT22;4757;59.334;18.034;2023-10-19T02:54:17;2.20;99.90
9437;DHT22;4757;59.334;18.034;2023-10-19T02:56:49;2.20;99.90
9437;DHT22;4757;59.334;18.034;2023-10-19T02:59:22;2.10;99.90
9437;DHT22;4757;59.334;18.034;2023-10-19T03:01:55;2.10;99.90
9437;DHT22;4757;59.334;18.034;2023-10-19T03:04:29;2.20;99.90
9437;DHT22;4757;59.334;18.034;2023-10-19T03:06:57;2.10;99.90
9437;DHT22;4757;59.334;18.034;2023-10-19T03:09:25;2.20;99.90
9437;DHT22;4757;59.334;18.034;2023-10-19T03:11:57;2.10;99.90
9437;DHT22;4757;59.334;18.034;2023-10-19T03:14:31;2.10;99.90
9437;DHT22;4757;59.334;18.034;2023-10-19T03:17:00;2.10;99.90
9437;DHT22;4757;59.334;18.034;2023-10-19T03:19:27;2.10;99.90
9437;DHT22;4757;59.334;18.034;2023-10-19T03:21:55;2.10;99.90
9437;DHT22;4757;59.334;18.034;2023-10-19T03:24:27;2.10;99.90
9437;DHT22;4757;59.334;18.034;2023-10-19T03:27:05;2.00;99.90
9437;DHT22;4757;59.334;18.034;2023-10-19T03:29:52;2.00;99.90
9437;DHT22;4757;59.334;18.034;2023-10-19T03:32:24;2.10;99.90
9437;DHT22;4757;59.334;18.034;2023-10-19T03:34:55;2.00;99.90
9437;DHT22;4757;59.334;18.034;2023-10-19T03:37:24;2.00;99.90
9437;DHT22;4757;59.334;18.034;2023-10-19T03:39:53;2.00;99.90
9437;DHT22;4757;59.334;18.034;2023-10-19T03:42:26;2.00;99.90
9437;DHT22;4757;59.334;18.034;2023-10-19T03:45:00;2.00;99.90
9437;DHT22;4757;59.334;18.034;2023-10-19T03:47:34;2.10;99.90
9437;DHT22;4757;59.334;18.034;2023-10-19T03:50:03;2.10;99.90
9437;DHT22;4757;59.334;18.034;2023-10-19T03:52:37;2.00;99.90
9437;DHT22;4757;59.334;18.034;2023-10-19T03:55:06;2.00;99.90
9437;DHT22;4757;59.334;18.034;2023-10-19T03:57:38;1.80;99.90
9437;DHT22;4757;59.334;18.034;2023-10-19T04:00:14;2.00;99.90
9437;DHT22;4757;59.334;18.034;2023-10-19T04:02:52;1.90;99.90
9437;DHT22;4757;59.334;18.034;2023-10-19T04:05:23;1.90;99.90
9437;DHT22;4757;59.334;18.034;2023-10-19T04:07:50;1.80;99.90
9437;DHT22;4757;59.334;18.034;2023-10-19T04:10:26;1.70;99.90
9437;DHT22;4757;59.334;18.034;2023-10-19T04:12:57;1.70;99.90
9437;DHT22;4757;59.334;18.034;2023-10-19T04:15:28;1.80;99.90
9437;DHT22;4757;59.334;18.034;2023-10-19T04:18:05;1.80;99.90
9437;DHT22;4757;59.334;18.034;2023-10-19T04:20:37;1.70;99.90
9437;DHT22;4757;59.334;18.034;2023-10-19T04:23:17;1.80;99.90
9437;DHT22;4757;59.334;18.034;2023-10-19T04:25:44;1.60;99.90
9437;DHT22;4757;59.334;18.034;2023-10-19T04:28:14;1.80;99.90
9437;DHT22;4757;59.334;18.034;2023-10-19T04:30:41;1.80;99.90
9437;DHT22;4757;59.334;18.034;2023-10-19T04:33:09;1.80;99.90
9437;DHT22;4757;59.334;18.034;2023-10-19T04:35:37;1.70;99.90
9437;DHT22;4757;59.334;18.034;2023-10-19T04:38:05;1.70;99.90
9437;DHT22;4757;59.334;18.034;2023-10-19T04:40:35;1.70;99.90
9437;DHT22;4757;59.334;18.034;2023-10-19T04:43:03;1.60;99.90
9437;DHT22;4757;59.334;18.034;2023-10-19T04:45:39;1.60;99.90
9437;DHT22;4757;59.334;18.034;2023-10-19T04:48:07;1.60;99.90
9437;DHT22;4757;59.334;18.034;2023-10-19T04:50:34;1.60;99.90
9437;DHT22;4757;59.334;18.034;2023-10-19T04:53:01;1.60;99.90
9437;DHT22;4757;59.334;18.034;2023-10-19T04:55:30;1.60;99.90
9437;DHT22;4757;59.334;18.034;2023-10-19T04:57:57;1.60;99.90
9437;DHT22;4757;59.334;18.034;2023-10-19T05:00:24;1.40;99.90
9437;DHT22;4757;59.334;18.034;2023-10-19T05:02:55;1.50;99.90
9437;DHT22;4757;59.334;18.034;2023-10-19T05:05:22;1.60;99.90
9437;DHT22;4757;59.334;18.034;2023-10-19T05:07:49;1.60;99.90
9437;DHT22;4757;59.334;18.034;2023-10-19T05:10:17;1.60;99.90
9437;DHT22;4757;59.334;18.034;2023-10-19T05:12:44;1.60;99.90
9437;DHT22;4757;59.334;18.034;2023-10-19T05:15:14;1.70;99.90
9437;DHT22;4757;59.334;18.034;2023-10-19T05:17:43;1.60;99.90
9437;DHT22;4757;59.334;18.034;2023-10-19T05:20:10;1.60;99.90
9437;DHT22;4757;59.334;18.034;2023-10-19T05:22:37;1.60;99.90
9437;DHT22;4757;59.334;18.034;2023-10-19T05:25:06;1.50;99.90
9437;DHT22;4757;59.334;18.034;2023-10-19T05:27:34;1.60;99.90
9437;DHT22;4757;59.334;18.034;2023-10-19T05:30:02;1.60;99.90
9437;DHT22;4757;59.334;18.034;2023-10-19T05:32:31;1.60;99.90
9437;DHT22;4757;59.334;18.034;2023-10-19T05:35:00;1.70;99.90
9437;DHT22;4757;59.334;18.034;2023-10-19T05:37:31;1.70;99.90
9437;DHT22;4757;59.334;18.034;2023-10-19T05:39:59;1.80;99.90
9437;DHT22;4757;59.334;18.034;2023-10-19T05:42:26;1.60;99.90
9437;DHT22;4757;59.334;18.034;2023-10-19T05:44:55;1.70;99.90
9437;DHT22;4757;59.334;18.034;2023-10-19T05:47:22;1.70;99.90
9437;DHT22;4757;59.334;18.034;2023-10-19T05:49:49;1.50;99.90
9437;DHT22;4757;59.334;18.034;2023-10-19T05:52:17;1.50;99.90
9437;DHT22;4757;59.334;18.034;2023-10-19T05:54:47;1.40;99.90
9437;DHT22;4757;59.334;18.034;2023-10-19T05:57:14;1.40;99.90
9437;DHT22;4757;59.334;18.034;2023-10-19T05:59:42;1.60;99.90
9437;DHT22;4757;59.334;18.034;2023-10-19T06:02:09;1.90;99.90
9437;DHT22;4757;59.334;18.034;2023-10-19T06:04:39;1.60;99.90
9437;DHT22;4757;59.334;18.034;2023-10-19T06:07:11;1.50;99.90
9437;DHT22;4757;59.334;18.034;2023-10-19T06:09:40;1.50;99.90
9437;DHT22;4757;59.334;18.034;2023-10-19T06:12:08;1.50;99.90
9437;DHT22;4757;59.334;18.034;2023-10-19T06:14:36;1.50;99.90
9437;DHT22;4757;59.334;18.034;2023-10-19T06:17:15;1.70;99.90
9437;DHT22;4757;59.334;18.034;2023-10-19T06:19:49;1.60;99.90
9437;DHT22;4757;59.334;18.034;2023-10-19T06:22:20;1.70;99.90
9437;DHT22;4757;59.334;18.034;2023-10-19T06:24:47;1.70;99.90
9437;DHT22;4757;59.334;18.034;2023-10-19T06:27:14;1.70;99.90
9437;DHT22;4757;59.334;18.034;2023-10-19T06:29:42;1.70;99.90
9437;DHT22;4757;59.334;18.034;2023-10-19T06:32:11;1.60;99.90
9437;DHT22;4757;59.334;18.034;2023-10-19T06:34:40;1.70;99.90
9437;DHT22;4757;59.334;18.034;2023-10-19T06:37:08;1.60;99.90
9437;DHT22;4757;59.334;18.034;2023-10-19T06:39:37;1.60;99.90
9437;DHT22;4757;59.334;18.034;2023-10-19T06:42:08;1.70;99.90
9437;DHT22;4757;59.334;18.034;2023-10-19T06:44:56;1.60;99.90
9437;DHT22;4757;59.334;18.034;2023-10-19T06:47:28;1.70;99.90
9437;DHT22;4757;59.334;18.034;2023-10-19T06:49:56;1.70;99.90
9437;DHT22;4757;59.334;18.034;2023-10-19T06:52:24;1.70;99.90
9437;DHT22;4757;59.334;18.034;2023-10-19T06:54:51;1.80;99.90
9437;DHT22;4757;59.334;18.034;2023-10-19T06:57:19;1.90;99.90
9437;DHT22;4757;59.334;18.034;2023-10-19T06:59:46;2.00;99.90
9437;DHT22;4757;59.334;18.034;2023-10-19T07:02:13;2.10;99.90
9437;DHT22;4757;59.334;18.034;2023-10-19T07:04:41;2.20;99.90
9437;DHT22;4757;59.334;18.034;2023-10-19T07:07:08;2.10;99.90
9437;DHT22;4757;59.334;18.034;2023-10-19T07:09:36;2.00;99.90
9437;DHT22;4757;59.334;18.034;2023-10-19T07:12:03;1.90;99.90
9437;DHT22;4757;59.334;18.034;2023-10-19T07:14:32;1.90;99.90
9437;DHT22;4757;59.334;18.034;2023-10-19T07:17:00;2.20;99.90
9437;DHT22;4757;59.334;18.034;2023-10-19T07:19:27;2.20;99.90
9437;DHT22;4757;59.334;18.034;2023-10-19T07:21:56;2.20;99.90
9437;DHT22;4757;59.334;18.034;2023-10-19T07:24:26;2.40;99.90
9437;DHT22;4757;59.334;18.034;2023-10-19T07:26:53;2.30;99.90
9437;DHT22;4757;59.334;18.034;2023-10-19T07:29:29;2.50;99.90
9437;DHT22;4757;59.334;18.034;2023-10-19T07:31:57;2.60;99.90
9437;DHT22;4757;59.334;18.034;2023-10-19T07:34:25;2.60;99.90
9437;DHT22;4757;59.334;18.034;2023-10-19T07:36:55;2.60;99.90
9437;DHT22;4757;59.334;18.034;2023-10-19T07:39:22;2.60;99.90
9437;DHT22;4757;59.334;18.034;2023-10-19T07:41:50;2.60;99.90
9437;DHT22;4757;59.334;18.034;2023-10-19T07:44:17;2.70;99.90
9437;DHT22;4757;59.334;18.034;2023-10-19T07:46:45;2.70;99.90
9437;DHT22;4757;59.334;18.034;2023-10-19T07:49:12;2.80;99.90
9437;DHT22;4757;59.334;18.034;2023-10-19T07:51:48;2.80;99.90
9437;DHT22;4757;59.334;18.034;2023-10-19T07:54:16;2.80;99.90
9437;DHT22;4757;59.334;18.034;2023-10-19T07:56:44;2.80;99.90
9437;DHT22;4757;59.334;18.034;2023-10-19T07:59:11;2.90;99.90
9437;DHT22;4757;59.334;18.034;2023-10-19T08:01:39;2.70;99.90
9437;DHT22;4757;59.334;18.034;2023-10-19T08:04:07;2.70;99.90
9437;DHT22;4757;59.334;18.034;2023-10-19T08:06:34;2.80;99.90
9437;DHT22;4757;59.334;18.034;2023-10-19T08:09:02;2.70;99.90
9437;DHT22;4757;59.334;18.034;2023-10-19T08:11:33;2.60;99.90
9437;DHT22;4757;59.334;18.034;2023-10-19T08:14:01;2.80;99.90
9437;DHT22;4757;59.334;18.034;2023-10-19T08:16:29;2.90;99.90
9437;DHT22;4757;59.334;18.034;2023-10-19T08:18:57;3.00;99.90
9437;DHT22;4757;59.334;18.034;2023-10-19T08:21:25;2.90;99.90
9437;DHT22;4757;59.334;18.034;2023-10-19T08:23:55;3.10;99.90
9437;DHT22;4757;59.334;18.034;2023-10-19T08:26:23;3.20;99.90
9437;DHT22;4757;59.334;18.034;2023-10-19T08:28:50;3.10;99.90
9437;DHT22;4757;59.334;18.034;2023-10-19T08:31:18;3.10;99.90
9437;DHT22;4757;59.334;18.034;2023-10-19T08:33:46;3.00;99.90
9437;DHT22;4757;59.334;18.034;2023-10-19T08:36:20;3.00;99.90
9437;DHT22;4757;59.334;18.034;2023-10-19T08:38:48;3.00;99.90
9437;DHT22;4757;59.334;18.034;2023-10-19T08:41:15;3.20;99.90
9437;DHT22;4757;59.334;18.034;2023-10-19T08:43:42;3.10;99.90
9437;DHT22;4757;59.334;18.034;2023-10-19T08:46:11;3.10;99.90
9437;DHT22;4757;59.334;18.034;2023-10-19T08:48:39;3.50;99.90
9437;DHT22;4757;59.334;18.034;2023-10-19T08:51:11;3.40;99.90
9437;DHT22;4757;59.334;18.034;2023-10-19T08:53:44;3.50;99.90
9437;DHT22;4757;59.334;18.034;2023-10-19T08:56:15;3.60;99.90
9437;DHT22;4757;59.334;18.034;2023-10-19T08:58:43;3.80;99.90
9437;DHT22;4757;59.334;18.034;2023-10-19T09:01:11;3.70;99.90
9437;DHT22;4757;59.334;18.034;2023-10-19T09:03:39;3.80;99.90
9437;DHT22;4757;59.334;18.034;2023-10-19T09:06:07;3.80;99.90
9437;DHT22;4757;59.334;18.034;2023-10-19T09:08:35;3.80;99.90
9437;DHT22;4757;59.334;18.034;2023-10-19T09:11:10;3.70;99.90
9437;DHT22;4757;59.334;18.034;2023-10-19T09:13:50;3.70;99.90
9437;DHT22;4757;59.334;18.034;2023-10-19T09:16:22;3.70;99.90
9437;DHT22;4757;59.334;18.034;2023-10-19T09:18:51;3.60;99.90
9437;DHT22;4757;59.334;18.034;2023-10-19T09:21:20;3.40;99.90
9437;DHT22;4757;59.334;18.034;2023-10-19T09:23:55;3.50;99.90
9437;DHT22;4757;59.334;18.034;2023-10-19T09:26:23;3.40;99.90
9437;DHT22;4757;59.334;18.034;2023-10-19T09:28:52;3.40;99.90
9437;DHT22;4757;59.334;18.034;2023-10-19T09:31:23;3.30;99.90
9437;DHT22;4757;59.334;18.034;2023-10-19T09:33:52;3.40;99.90
9437;DHT22;4757;59.334;18.034;2023-10-19T09:36:21;3.50;99.90
9437;DHT22;4757;59.334;18.034;2023-10-19T09:38:53;3.60;99.90
9437;DHT22;4757;59.334;18.034;2023-10-19T09:41:21;3.30;99.90
9437;DHT22;4757;59.334;18.034;2023-10-19T09:43:50;3.10;99.90
9437;DHT22;4757;59.334;18.034;2023-10-19T09:46:23;3.00;99.90
9437;DHT22;4757;59.334;18.034;2023-10-19T09:48:53;2.90;99.90
9437;DHT22;4757;59.334;18.034;2023-10-19T09:51:21;3.00;99.90
9437;DHT22;4757;59.334;18.034;2023-10-19T09:53:55;3.10;99.90
9437;DHT22;4757;59.334;18.034;2023-10-19T09:56:28;3.10;99.90
9437;DHT22;4757;59.334;18.034;2023-10-19T09:59:05;3.10;99.90
9437;DHT22;4757;59.334;18.034;2023-10-19T10:02:09;3.00;99.90
9437;DHT22;4757;59.334;18.034;2023-10-19T10:04:41;2.90;99.90
9437;DHT22;4757;59.334;18.034;2023-10-19T10:07:11;2.90;99.90
9437;DHT22;4757;59.334;18.034;2023-10-19T10:09:48;3.00;99.90
9437;DHT22;4757;59.334;18.034;2023-10-19T10:12:33;3.10;99.90
9437;DHT22;4757;59.334;18.034;2023-10-19T10:15:05;3.10;99.90
9437;DHT22;4757;59.334;18.034;2023-10-19T10:17:37;3.00;99.90
9437;DHT22;4757;59.334;18.034;2023-10-19T10:20:29;3.00;99.90
9437;DHT22;4757;59.334;18.034;2023-10-19T10:23:23;2.90;99.90
9437;DHT22;4757;59.334;18.034;2023-10-19T10:26:00;3.10;99.90
9437;DHT22;4757;59.334;18.034;2023-10-19T10:28:27;3.30;99.90
9437;DHT22;4757;59.334;18.034;2023-10-19T10:31:21;3.30;99.90
9437;DHT22;4757;59.334;18.034;2023-10-19T10:33:53;3.40;99.90
9437;DHT22;4757;59.334;18.034;2023-10-19T10:36:23;3.40;99.90
9437;DHT22;4757;59.334;18.034;2023-10-19T10:39:02;3.50;99.90
9437;DHT22;4757;59.334;18.034;2023-10-19T10:41:32;3.70;99.90
9437;DHT22;4757;59.334;18.034;2023-10-19T10:43:59;3.60;99.90
9437;DHT22;4757;59.334;18.034;2023-10-19T10:46:30;3.80;99.90
9437;DHT22;4757;59.334;18.034;2023-10-19T10:49:11;3.90;99.90
9437;DHT22;4757;59.334;18.034;2023-10-19T10:51:41;3.90;99.90
9437;DHT22;4757;59.334;18.034;2023-10-19T10:54:09;3.90;99.90
9437;DHT22;4757;59.334;18.034;2023-10-19T10:56:40;3.70;99.90
9437;DHT22;4757;59.334;18.034;2023-10-19T10:59:14;3.80;99.90
9437;DHT22;4757;59.334;18.034;2023-10-19T11:01:42;3.90;99.90
9437;DHT22;4757;59.334;18.034;2023-10-19T11:04:10;3.80;99.90
9437;DHT22;4757;59.334;18.034;2023-10-19T11:06:52;4.00;99.90
9437;DHT22;4757;59.334;18.034;2023-10-19T11:09:22;3.80;99.90
9437;DHT22;4757;59.334;18.034;2023-10-19T11:11:50;3.80;99.90
9437;DHT22;4757;59.334;18.034;2023-10-19T11:14:19;3.80;99.90
9437;DHT22;4757;59.334;18.034;2023-10-19T11:16:49;3.80;99.90
9437;DHT22;4757;59.334;18.034;2023-10-19T11:19:16;3.70;99.90
9437;DHT22;4757;59.334;18.034;2023-10-19T11:21:54;3.80;99.90
9437;DHT22;4757;59.334;18.034;2023-10-19T11:24:27;3.80;99.90
9437;DHT22;4757;59.334;18.034;2023-10-19T11:26:57;4.00;99.90
9437;DHT22;4757;59.334;18.034;2023-10-19T11:29:24;3.80;99.90
9437;DHT22;4757;59.334;18.034;2023-10-19T11:31:59;3.90;99.90
9437;DHT22;4757;59.334;18.034;2023-10-19T11:34:33;3.90;99.90
9437;DHT22;4757;59.334;18.034;2023-10-19T11:37:02;3.50;99.90
9437;DHT22;4757;59.334;18.034;2023-10-19T11:39:32;3.80;99.90
9437;DHT22;4757;59.334;18.034;2023-10-19T11:41:59;3.90;99.90
9437;DHT22;4757;59.334;18.034;2023-10-19T11:44:26;3.80;99.90
9437;DHT22;4757;59.334;18.034;2023-10-19T11:46:54;4.00;99.90
9437;DHT22;4757;59.334;18.034;2023-10-19T11:49:24;4.00;99.90
9437;DHT22;4757;59.334;18.034;2023-10-19T11:51:53;4.10;99.90
9437;DHT22;4757;59.334;18.034;2023-10-19T11:54:21;4.10;99.90
9437;DHT22;4757;59.334;18.034;2023-10-19T11:56:50;4.20;99.90
9437;DHT22;4757;59.334;18.034;2023-10-19T11:59:17;4.30;99.90
9437;DHT22;4757;59.334;18.034;2023-10-19T12:01:45;4.20;99.90
9437;DHT22;4757;59.334;18.034;2023-10-19T12:04:12;4.20;99.90
9437;DHT22;4757;59.334;18.034;2023-10-19T12:06:39;4.10;99.90
9437;DHT22;4757;59.334;18.034;2023-10-19T12:09:07;4.10;99.90
9437;DHT22;4757;59.334;18.034;2023-10-19T12:11:44;4.10;99.90
9437;DHT22;4757;59.334;18.034;2023-10-19T12:14:14;4.00;99.90
9437;DHT22;4757;59.334;18.034;2023-10-19T12:16:41;3.80;99.90
9437;DHT22;4757;59.334;18.034;2023-10-19T12:19:09;3.70;99.90
9437;DHT22;4757;59.334;18.034;2023-10-19T12:21:36;3.60;99.90
9437;DHT22;4757;59.334;18.034;2023-10-19T12:24:08;3.70;99.90
9437;DHT22;4757;59.334;18.034;2023-10-19T12:26:35;3.80;99.90
9437;DHT22;4757;59.334;18.034;2023-10-19T12:29:03;3.80;99.90
9437;DHT22;4757;59.334;18.034;2023-10-19T12:31:34;4.00;99.90
9437;DHT22;4757;59.334;18.034;2023-10-19T12:34:05;4.70;99.90
9437;DHT22;4757;59.334;18.034;2023-10-19T12:36:34;5.20;99.90
9437;DHT22;4757;59.334;18.034;2023-10-19T12:39:02;5.50;99.90
9437;DHT22;4757;59.334;18.034;2023-10-19T12:41:35;5.30;99.90
9437;DHT22;4757;59.334;18.034;2023-10-19T12:44:02;4.80;99.90
9437;DHT22;4757;59.334;18.034;2023-10-19T12:46:35;4.20;99.90
9437;DHT22;4757;59.334;18.034;2023-10-19T12:49:07;3.90;99.90
9437;DHT22;4757;59.334;18.034;2023-10-19T12:51:35;3.70;99.90
9437;DHT22;4757;59.334;18.034;2023-10-19T12:54:03;3.60;99.90
9437;DHT22;4757;59.334;18.034;2023-10-19T12:56:30;3.30;99.90
9437;DHT22;4757;59.334;18.034;2023-10-19T12:59:00;3.50;99.90
9437;DHT22;4757;59.334;18.034;2023-10-19T13:01:27;3.60;99.90
9437;DHT22;4757;59.334;18.034;2023-10-19T13:03:57;3.60;99.90
9437;DHT22;4757;59.334;18.034;2023-10-19T13:06:26;3.50;99.90
9437;DHT22;4757;59.334;18.034;2023-10-19T13:08:59;3.60;99.90
9437;DHT22;4757;59.334;18.034;2023-10-19T13:11:27;2.50;99.90
9437;DHT22;4757;59.334;18.034;2023-10-19T13:13:54;3.50;99.90
9437;DHT22;4757;59.334;18.034;2023-10-19T13:16:24;3.50;99.90
9437;DHT22;4757;59.334;18.034;2023-10-19T13:18:52;3.40;99.90
9437;DHT22;4757;59.334;18.034;2023-10-19T13:21:20;3.50;99.90
9437;DHT22;4757;59.334;18.034;2023-10-19T13:23:55;3.40;99.90
9437;DHT22;4757;59.334;18.034;2023-10-19T13:26:22;3.30;99.90
9437;DHT22;4757;59.334;18.034;2023-10-19T13:28:50;3.40;99.90
9437;DHT22;4757;59.334;18.034;2023-10-19T13:31:20;3.50;99.90
9437;DHT22;4757;59.334;18.034;2023-10-19T13:33:49;3.50;99.90
9437;DHT22;4757;59.334;18.034;2023-10-19T13:36:16;3.50;99.90
9437;DHT22;4757;59.334;18.034;2023-10-19T13:38:44;3.70;99.90
9437;DHT22;4757;59.334;18.034;2023-10-19T13:41:11;3.50;99.90
9437;DHT22;4757;59.334;18.034;2023-10-19T13:43:41;3.50;99.90
9437;DHT22;4757;59.334;18.034;2023-10-19T13:46:11;3.60;99.90
9437;DHT22;4757;59.334;18.034;2023-10-19T13:48:39;3.50;99.90
9437;DHT22;4757;59.334;18.034;2023-10-19T13:51:07;3.60;99.90
9437;DHT22;4757;59.334;18.034;2023-10-19T13:53:41;3.60;99.90
9437;DHT22;4757;59.334;18.034;2023-10-19T13:56:09;3.60;99.90
9437;DHT22;4757;59.334;18.034;2023-10-19T13:58:39;3.60;99.90
9437;DHT22;4757;59.334;18.034;2023-10-19T14:01:08;3.50;99.90
9437;DHT22;4757;59.334;18.034;2023-10-19T14:03:37;3.50;99.90
9437;DHT22;4757;59.334;18.034;2023-10-19T14:06:05;3.50;99.90
9437;DHT22;4757;59.334;18.034;2023-10-19T14:08:39;3.50;99.90
9437;DHT22;4757;59.334;18.034;2023-10-19T14:11:06;3.40;99.90
9437;DHT22;4757;59.334;18.034;2023-10-19T14:13:35;3.50;99.90
9437;DHT22;4757;59.334;18.034;2023-10-19T14:16:06;3.50;99.90
9437;DHT22;4757;59.334;18.034;2023-10-19T14:18:36;3.50;99.90
9437;DHT22;4757;59.334;18.034;2023-10-19T14:21:17;3.60;99.90
9437;DHT22;4757;59.334;18.034;2023-10-19T14:23:45;3.60;99.90
9437;DHT22;4757;59.334;18.034;2023-10-19T14:26:13;3.70;99.90
9437;DHT22;4757;59.334;18.034;2023-10-19T14:28:41;3.70;99.90
9437;DHT22;4757;59.334;18.034;2023-10-19T14:31:09;3.60;99.90
9437;DHT22;4757;59.334;18.034;2023-10-19T14:33:38;3.70;99.90
9437;DHT22;4757;59.334;18.034;2023-10-19T14:36:06;3.70;99.90
9437;DHT22;4757;59.334;18.034;2023-10-19T14:38:33;3.60;99.90
9437;DHT22;4757;59.334;18.034;2023-10-19T14:41:02;3.60;99.90
9437;DHT22;4757;59.334;18.034;2023-10-19T14:43:30;3.50;99.90
9437;DHT22;4757;59.334;18.034;2023-10-19T14:45:57;3.50;99.90
9437;DHT22;4757;59.334;18.034;2023-10-19T14:48:24;3.50;99.90
9437;DHT22;4757;59.334;18.034;2023-10-19T14:50:53;3.50;99.90
9437;DHT22;4757;59.334;18.034;2023-10-19T14:53:23;3.40;99.90
9437;DHT22;4757;59.334;18.034;2023-10-19T14:55:52;3.40;99.90
9437;DHT22;4757;59.334;18.034;2023-10-19T14:58:19;3.20;99.90
9437;DHT22;4757;59.334;18.034;2023-10-19T15:00:47;3.20;99.90
9437;DHT22;4757;59.334;18.034;2023-10-19T15:03:22;3.30;99.90
9437;DHT22;4757;59.334;18.034;2023-10-19T15:05:52;3.40;99.90
9437;DHT22;4757;59.334;18.034;2023-10-19T15:08:22;3.40;99.90
9437;DHT22;4757;59.334;18.034;2023-10-19T15:10:54;3.40;99.90
9437;DHT22;4757;59.334;18.034;2023-10-19T15:13:22;3.20;99.90
9437;DHT22;4757;59.334;18.034;2023-10-19T15:15:49;3.10;99.90
9437;DHT22;4757;59.334;18.034;2023-10-19T15:18:18;3.00;99.90
9437;DHT22;4757;59.334;18.034;2023-10-19T15:20:45;3.00;99.90
9437;DHT22;4757;59.334;18.034;2023-10-19T15:23:13;3.00;99.90
9437;DHT22;4757;59.334;18.034;2023-10-19T15:25:43;2.80;99.90
9437;DHT22;4757;59.334;18.034;2023-10-19T15:28:11;2.80;99.90
9437;DHT22;4757;59.334;18.034;2023-10-19T15:30:38;2.70;99.90
9437;DHT22;4757;59.334;18.034;2023-10-19T15:33:10;2.80;99.90
9437;DHT22;4757;59.334;18.034;2023-10-19T15:35:37;2.50;99.90
9437;DHT22;4757;59.334;18.034;2023-10-19T15:38:05;2.50;99.90
9437;DHT22;4757;59.334;18.034;2023-10-19T15:40:32;2.40;99.90
9437;DHT22;4757;59.334;18.034;2023-10-19T15:43:01;2.50;99.90
9437;DHT22;4757;59.334;18.034;2023-10-19T15:45:29;2.40;99.90
9437;DHT22;4757;59.334;18.034;2023-10-19T15:48:02;2.40;99.90
9437;DHT22;4757;59.334;18.034;2023-10-19T15:50:29;2.40;99.90
9437;DHT22;4757;59.334;18.034;2023-10-19T15:52:57;2.40;99.90
9437;DHT22;4757;59.334;18.034;2023-10-19T15:55:24;2.40;99.90
9437;DHT22;4757;59.334;18.034;2023-10-19T15:57:54;2.40;99.90
9437;DHT22;4757;59.334;18.034;2023-10-19T16:00:23;2.50;99.90
9437;DHT22;4757;59.334;18.034;2023-10-19T16:02:50;2.80;99.90
9437;DHT22;4757;59.334;18.034;2023-10-19T16:05:19;2.80;99.90
9437;DHT22;4757;59.334;18.034;2023-10-19T16:07:46;2.70;99.90
9437;DHT22;4757;59.334;18.034;2023-10-19T16:10:14;2.60;99.90
9437;DHT22;4757;59.334;18.034;2023-10-19T16:12:43;2.60;99.90
9437;DHT22;4757;59.334;18.034;2023-10-19T16:15:13;2.60;99.90
9437;DHT22;4757;59.334;18.034;2023-10-19T16:17:40;2.60;99.90
9437;DHT22;4757;59.334;18.034;2023-10-19T16:20:11;2.60;99.90
9437;DHT22;4757;59.334;18.034;2023-10-19T16:22:42;2.40;99.90